Time;durP1;ratioP1;P1;durP2;ratioP2;P2;SDS_P1;SDS_P2;PMS_P1;PMS_P2;Temp;Humidity;BMP_temperature;BMP_pressure;BME280_temperature;BME280_humidity;BME280_pressure;Samples;Min_cycle;Max_cycle;Signal;HPM_P1;HPM_P2
2023/07/14 00:01:54;;;;;;;6.50;3.80;;;;;;;21.81;48.17;99237.28;5107577;28;20042;-73
2023/07/14 00:04:27;;;;;;;4.82;3.08;;;;;;;21.57;48.72;99214.50;5108056;28;20044;-73
2023/07/14 00:06:54;;;;;;;7.72;5.55;;;;;;;21.73;48.33;99228.09;5108042;28;20113;-73
2023/07/14 00:09:25;;;;;;;11.25;6.18;;;;;;;21.77;48.17;99242.09;5107696;28;20299;-72
2023/07/14 00:11:52;;;;;;;6.00;3.60;;;;;;;21.81;47.80;99237.28;5107710;28;20310;-72
2023/07/14 00:14:19;;;;;;;3.97;3.10;;;;;;;21.74;47.79;99237.88;5107926;28;20204;-70
2023/07/14 00:16:48;;;;;;;4.75;2.53;;;;;;;21.77;47.63;99244.81;5107568;28;20109;-72
2023/07/14 00:19:16;;;;;;;4.97;2.20;;;;;;;21.68;47.55;99235.81;5107142;28;20047;-72
2023/07/14 00:21:44;;;;;;;3.90;2.38;;;;;;;21.70;47.60;99246.44;5107476;28;20292;-72
2023/07/14 00:24:13;;;;;;;4.00;2.22;;;;;;;21.74;47.86;99242.44;5107735;28;20040;-72
2023/07/14 00:26:41;;;;;;;3.17;2.20;;;;;;;21.77;47.39;99239.41;5107437;28;20040;-72
2023/07/14 00:29:31;;;;;;;6.38;4.88;;;;;;;21.74;47.26;99237.03;5107084;28;20094;-72
2023/07/14 00:31:59;;;;;;;3.88;2.83;;;;;;;21.72;47.09;99234.50;5106745;28;20032;-72
2023/07/14 00:34:26;;;;;;;4.57;2.60;;;;;;;21.58;46.74;99218.03;5107540;28;20052;-72
2023/07/14 00:36:53;;;;;;;3.92;2.30;;;;;;;21.20;46.92;99170.75;5106911;28;20040;-72
2023/07/14 00:39:19;;;;;;;3.53;2.45;;;;;;;21.64;46.76;99237.13;5106746;28;20043;-72
2023/07/14 00:41:46;;;;;;;3.38;2.08;;;;;;;21.67;47.21;99238.66;5107379;28;20117;-72
2023/07/14 00:44:14;;;;;;;3.35;2.28;;;;;;;21.64;46.92;99239.84;5107062;28;20292;-72
2023/07/14 00:46:41;;;;;;;4.85;2.30;;;;;;;21.57;46.89;99236.06;5107012;28;20043;-71
2023/07/14 00:49:16;;;;;;;4.28;2.47;;;;;;;21.63;47.16;99237.28;5105855;28;20044;-71
2023/07/14 00:51:44;;;;;;;;;;;;;;;21.61;47.00;99237.44;5107368;28;20226;-72
2023/07/14 00:54:24;;;;;;;2.97;2.00;;;;;;;21.64;47.45;99233.59;5105724;28;19969;-72
2023/07/14 00:56:52;;;;;;;4.10;2.30;;;;;;;21.68;46.98;99237.66;5106597;28;20193;-72
2023/07/14 00:59:19;;;;;;;4.45;2.58;;;;;;;21.61;47.10;99233.91;5106611;28;20329;-72
2023/07/14 01:02:21;;;;;;;3.10;2.03;;;;;;;21.57;47.50;99238.78;5106763;28;20044;-72
2023/07/14 01:04:54;;;;;;;3.55;2.20;;;;;;;21.54;47.67;99233.69;5106996;28;20098;-72
2023/07/14 01:07:25;;;;;;;3.40;2.50;;;;;;;21.56;47.43;99233.53;5105049;28;20044;-72
2023/07/14 01:09:54;;;;;;;6.22;2.55;;;;;;;21.40;47.77;99237.81;5106879;28;20074;-72
2023/07/14 01:12:23;;;;;;;4.80;2.42;;;;;;;21.48;47.90;99250.50;5106283;28;20040;-72
2023/07/14 01:14:54;;;;;;;6.50;2.28;;;;;;;21.40;48.23;99240.50;5106238;28;20044;-73
2023/07/14 01:17:22;;;;;;;4.68;2.60;;;;;;;21.41;48.38;99235.94;5106423;28;20052;-72
2023/07/14 01:19:53;;;;;;;5.10;3.13;;;;;;;21.35;47.96;99250.06;5106361;28;20050;-72
2023/07/14 01:22:27;;;;;;;4.65;2.58;;;;;;;21.40;48.20;99229.72;5106394;28;20054;-73
2023/07/14 01:25:05;;;;;;;3.15;2.30;;;;;;;21.31;48.40;99240.59;5106041;28;20047;-73
2023/07/14 01:27:33;;;;;;;4.53;2.58;;;;;;;21.22;48.40;99234.28;5106012;28;20051;-73
2023/07/14 01:30:00;;;;;;;3.45;2.10;;;;;;;21.17;48.29;99225.81;5106230;28;20081;-73
2023/07/14 01:32:35;;;;;;;4.10;2.22;;;;;;;21.26;48.59;99237.50;5106008;28;20040;-73
2023/07/14 01:35:03;;;;;;;4.10;2.35;;;;;;;21.13;48.96;99244.13;5106527;28;20048;-73
2023/07/14 01:37:31;;;;;;;5.13;2.95;;;;;;;21.18;49.01;99243.66;5105909;28;20040;-73
2023/07/14 01:39:59;;;;;;;3.78;2.53;;;;;;;21.23;48.50;99244.06;5106354;28;20032;-73
2023/07/14 01:42:26;;;;;;;3.40;2.17;;;;;;;21.16;48.54;99247.53;5105864;28;20040;-73
2023/07/14 01:44:54;;;;;;;3.05;2.10;;;;;;;21.13;48.45;99245.97;5104967;28;20047;-73
2023/07/14 01:47:23;;;;;;;5.53;3.03;;;;;;;21.18;48.53;99243.66;5106080;28;20047;-73
2023/07/14 01:49:52;;;;;;;4.18;2.47;;;;;;;21.13;48.78;99245.97;5104915;28;20077;-72
2023/07/14 01:52:24;;;;;;;4.13;2.47;;;;;;;21.08;49.12;99249.13;5105423;28;20085;-73
2023/07/14 01:54:55;;;;;;;2.83;2.00;;;;;;;21.16;48.94;99256.44;5106252;28;20223;-73
2023/07/14 01:57:26;;;;;;;3.10;2.25;;;;;;;21.11;48.75;99256.06;5105642;28;20235;-72
2023/07/14 01:59:59;;;;;;;5.15;2.45;;;;;;;21.02;48.87;99265.91;5105544;28;20052;-73
2023/07/14 02:02:29;;;;;;;2.95;2.10;;;;;;;21.11;48.87;99267.69;5105927;28;20089;-72
2023/07/14 02:04:56;;;;;;;4.22;2.33;;;;;;;21.11;48.33;99269.53;5104749;28;20073;-73
2023/07/14 02:07:23;;;;;;;3.80;2.60;;;;;;;21.05;49.00;99272.84;5106100;28;20044;-72
2023/07/14 02:09:50;;;;;;;3.15;2.00;;;;;;;21.08;48.83;99286.00;5105814;28;20200;-73
2023/07/14 02:12:20;;;;;;;3.10;2.10;;;;;;;21.06;48.79;99286.16;5105782;28;20052;-73
2023/07/14 02:14:53;;;;;;;3.22;2.50;;;;;;;21.10;48.81;99284.88;5105774;28;20058;-72
2023/07/14 02:17:26;;;;;;;3.88;2.55;;;;;;;20.95;49.45;99297.13;5106072;28;20090;-73
2023/07/14 02:19:54;;;;;;;6.22;2.40;;;;;;;20.95;49.27;99299.81;5109308;28;20117;-73
2023/07/14 02:22:23;;;;;;;3.25;2.33;;;;;;;20.89;49.41;99302.28;5143010;27;20039;-73
2023/07/14 02:24:51;;;;;;;4.53;2.30;;;;;;;20.95;49.50;99294.44;5109815;28;20036;-73
2023/07/14 02:27:18;;;;;;;3.22;2.40;;;;;;;20.76;50.14;99308.88;5109769;28;20170;-72
2023/07/14 02:29:46;;;;;;;2.90;2.00;;;;;;;20.90;49.80;99318.28;5108567;28;20040;-73
2023/07/14 02:32:19;;;;;;;3.10;2.33;;;;;;;20.91;49.87;99322.69;5109361;28;20048;-73
2023/07/14 02:34:52;;;;;;;2.70;2.00;;;;;;;18.79;50.03;98973.94;5109340;28;20097;-73
2023/07/14 02:38:04;;;;;;;4.40;2.50;;;;;;;20.75;50.01;99326.03;5109286;28;20375;-73
2023/07/14 02:40:35;;;;;;;4.20;2.60;;;;;;;20.65;50.80;99324.38;5109507;28;20349;-73
2023/07/14 02:43:05;;;;;;;3.42;2.25;;;;;;;20.63;50.73;99335.31;5109147;28;20043;-73
2023/07/14 02:45:34;;;;;;;4.18;3.13;;;;;;;20.65;50.86;99340.53;5109425;28;20111;-71
2023/07/14 02:48:04;;;;;;;3.85;2.90;;;;;;;20.72;50.96;99342.50;5109341;28;20089;-72
2023/07/14 02:50:32;;;;;;;3.65;2.58;;;;;;;20.71;50.79;99337.25;5108800;28;20040;-72
2023/07/14 02:52:58;;;;;;;3.97;2.67;;;;;;;20.64;50.79;99345.06;5109234;28;20059;-72
2023/07/14 02:55:25;;;;;;;3.58;2.30;;;;;;;20.60;50.97;99340.13;5109186;28;20044;-72
2023/07/14 02:57:52;;;;;;;3.80;2.30;;;;;;;20.53;51.19;99347.97;5107878;28;20067;-71
2023/07/14 03:00:19;;;;;;;3.33;2.30;;;;;;;20.60;50.98;99338.28;5109345;28;20105;-72
2023/07/14 03:02:45;;;;;;;4.30;2.22;;;;;;;20.60;51.22;99338.28;5108972;28;20039;-72
2023/07/14 03:05:12;;;;;;;2.90;2.17;;;;;;;20.38;51.42;99320.69;5109265;28;20040;-72
2023/07/14 03:07:41;;;;;;;4.53;2.33;;;;;;;20.49;51.61;99347.41;5108932;28;20048;-71
2023/07/14 03:10:09;;;;;;;5.57;2.67;;;;;;;20.43;51.67;99339.91;5108652;28;20312;-71
2023/07/14 03:12:36;;;;;;;3.90;2.22;;;;;;;20.52;51.38;99343.56;5108823;28;20063;-72
2023/07/14 03:15:06;;;;;;;4.13;2.47;;;;;;;20.47;51.72;99343.16;5109124;28;20044;-72
2023/07/14 03:17:33;;;;;;;4.60;2.45;;;;;;;20.49;51.48;99343.88;5108711;28;20044;-71
2023/07/14 03:20:00;;;;;;;4.43;2.33;;;;;;;20.46;51.57;99338.78;5108396;28;20235;-71
2023/07/14 03:22:30;;;;;;;3.72;2.40;;;;;;;20.38;51.97;99347.59;5108930;28;20052;-71
2023/07/14 03:25:00;;;;;;;3.95;2.60;;;;;;;20.31;52.10;99341.09;5108074;28;20202;-71
2023/07/14 03:27:27;;;;;;;4.97;2.83;;;;;;;20.34;52.29;99342.66;5108835;28;20082;-70
2023/07/14 03:29:54;;;;;;;6.43;2.45;;;;;;;20.24;52.47;99333.75;5108049;28;20051;-71
2023/07/14 03:32:20;;;;;;;4.20;2.50;;;;;;;20.29;52.41;99350.31;5107336;28;20231;-71
2023/07/14 03:34:47;;;;;;;4.40;2.95;;;;;;;20.30;52.49;99354.69;5107303;28;20065;-71
2023/07/14 03:37:14;;;;;;;3.67;2.50;;;;;;;19.86;52.48;99287.97;5107219;28;20039;-71
2023/07/14 03:39:41;;;;;;;4.68;2.55;;;;;;;20.23;52.73;99346.38;5108186;28;20066;-71
2023/07/14 03:42:09;;;;;;;4.65;2.47;;;;;;;20.19;52.96;99351.16;5108183;28;20059;-71
2023/07/14 03:44:35;;;;;;;3.35;2.28;;;;;;;20.17;53.02;99350.47;5107983;28;20101;-72
2023/07/14 03:47:03;;;;;;;4.20;2.60;;;;;;;20.21;52.73;99350.16;5108469;28;20196;-70
2023/07/14 03:49:30;;;;;;;4.22;2.42;;;;;;;20.21;52.66;99344.78;5107962;28;20048;-72
2023/07/14 03:51:57;;;;;;;6.38;2.45;;;;;;;20.21;52.99;99347.47;5108324;28;20044;-71
2023/07/14 03:54:24;;;;;;;3.03;2.25;;;;;;;20.25;52.55;99344.38;5108016;28;20285;-72
2023/07/14 03:56:52;;;;;;;4.30;3.08;;;;;;;20.16;52.78;99351.44;5107573;28;20052;-71
2023/07/14 03:59:21;;;;;;;4.55;2.63;;;;;;;20.19;52.93;99348.47;5107893;28;20285;-71
2023/07/14 04:01:48;;;;;;;4.40;2.75;;;;;;;20.12;53.20;99347.34;5107765;28;20040;-71
2023/07/14 04:04:15;;;;;;;4.65;2.70;;;;;;;17.93;53.41;99011.41;5106713;28;20090;-71
2023/07/14 04:06:42;;;;;;;6.18;2.78;;;;;;;19.89;53.56;99329.84;5107846;28;20046;-72
2023/07/14 04:09:08;;;;;;;3.28;2.47;;;;;;;19.95;53.34;99325.72;5107457;28;20238;-72
2023/07/14 04:11:36;;;;;;;3.60;2.17;;;;;;;20.04;53.52;99349.06;5107623;28;20047;-72
2023/07/14 04:14:02;;;;;;;4.07;2.60;;;;;;;20.08;53.36;99356.72;5106484;28;20239;-72
2023/07/14 04:16:31;;;;;;;4.85;2.20;;;;;;;20.05;53.37;99351.63;5107270;28;20312;-71
2023/07/14 04:18:57;;;;;;;3.80;2.70;;;;;;;20.07;52.89;99364.94;5107222;28;20048;-72
2023/07/14 04:21:25;;;;;;;3.58;2.47;;;;;;;20.03;53.18;99355.44;5107708;28;20085;-72
2023/07/14 04:23:52;;;;;;;4.22;2.70;;;;;;;19.96;53.43;99360.56;5106885;28;20044;-72
2023/07/14 04:26:19;;;;;;;4.88;2.50;;;;;;;19.13;53.36;99202.56;5106300;28;20066;-72
2023/07/14 04:28:46;;;;;;;3.47;2.40;;;;;;;20.08;53.12;99364.78;5107610;28;20173;-71
2023/07/14 04:31:12;;;;;;;3.53;2.40;;;;;;;20.01;53.32;99358.28;5107070;28;20089;-71
2023/07/14 04:33:43;;;;;;;3.55;2.35;;;;;;;20.05;53.26;99356.16;5106168;28;20103;-71
2023/07/14 04:36:09;;;;;;;4.22;2.65;;;;;;;20.05;52.92;99350.78;5107250;28;20043;-72
2023/07/14 04:38:36;;;;;;;2.97;2.17;;;;;;;20.03;52.81;99350.91;5106086;28;20040;-71
2023/07/14 04:41:03;;;;;;;3.97;2.47;;;;;;;19.95;52.78;99334.66;5106469;28;20044;-72
2023/07/14 04:43:30;;;;;;;4.32;2.78;;;;;;;20.13;52.56;99358.97;5107085;28;20334;-72
2023/07/14 04:45:57;;;;;;;4.90;2.63;;;;;;;20.00;52.98;99353.91;5107059;28;20277;-73
2023/07/14 04:48:23;;;;;;;4.05;2.35;;;;;;;20.15;52.59;99359.66;5106983;28;20204;-71
2023/07/14 04:50:52;;;;;;;3.60;2.78;;;;;;;20.13;52.55;99357.13;5106924;28;20082;-72
2023/07/14 04:53:20;;;;;;;4.28;2.30;;;;;;;20.04;52.53;99360.69;5106917;28;20046;-72
2023/07/14 04:55:48;;;;;;;3.63;2.50;;;;;;;20.14;52.46;99368.72;5106889;28;20067;-72
2023/07/14 04:58:16;;;;;;;4.15;2.90;;;;;;;20.23;52.31;99359.81;5106786;28;20161;-72
2023/07/14 05:00:47;;;;;;;3.53;2.45;;;;;;;19.85;52.63;99309.63;5106165;28;20057;-71
2023/07/14 05:03:15;;;;;;;4.40;2.50;;;;;;;20.26;52.20;99362.22;5106668;28;20193;-72
2023/07/14 05:05:42;;;;;;;4.13;2.55;;;;;;;20.10;52.50;99340.41;5106710;28;20040;-72
2023/07/14 05:08:10;;;;;;;3.70;2.20;;;;;;;20.26;52.10;99358.69;5106069;28;20226;-72
2023/07/14 05:10:38;;;;;;;5.22;2.60;;;;;;;20.27;52.14;99363.06;5106577;28;20044;-71
2023/07/14 05:13:06;;;;;;;4.90;2.75;;;;;;;20.31;51.99;99367.16;5106282;28;20040;-71
2023/07/14 05:15:33;;;;;;;4.70;3.22;;;;;;;20.34;51.97;99372.25;5106556;28;20044;-72
2023/07/14 05:18:00;;;;;;;4.95;2.58;;;;;;;20.35;52.47;99387.41;5106487;28;20300;-72
2023/07/14 05:20:27;;;;;;;3.60;2.42;;;;;;;20.40;52.54;99390.50;5105266;28;20040;-72
2023/07/14 05:22:55;;;;;;;4.85;3.22;;;;;;;20.44;52.16;99402.69;5106692;28;20312;-72
2023/07/14 05:25:23;;;;;;;3.97;2.22;;;;;;;20.46;52.94;99392.63;5106644;28;20113;-72
2023/07/14 05:27:50;;;;;;;4.50;2.55;;;;;;;20.08;52.18;99332.50;5106349;28;20358;-72
2023/07/14 05:30:18;;;;;;;3.50;2.35;;;;;;;20.45;51.83;99383.69;5105989;28;20044;-72
2023/07/14 05:32:46;;;;;;;3.75;2.78;;;;;;;20.56;52.25;99398.81;5106515;28;20112;-72
2023/07/14 05:35:14;;;;;;;5.40;3.22;;;;;;;19.89;51.77;99278.75;5105947;28;20220;-72
2023/07/14 05:37:41;;;;;;;4.43;3.03;;;;;;;20.30;51.92;99350.16;5106488;28;20046;-72
2023/07/14 05:40:10;;;;;;;3.90;2.63;;;;;;;20.62;52.37;99406.31;5106406;28;20153;-72
2023/07/14 05:42:39;;;;;;;4.43;2.70;;;;;;;20.67;51.42;99393.25;5104979;28;20132;-72
2023/07/14 05:45:07;;;;;;;5.57;2.92;;;;;;;20.71;51.25;99393.81;5105902;28;20055;-72
2023/07/14 05:47:36;;;;;;;5.00;2.92;;;;;;;20.75;51.27;99387.13;5106072;28;20048;-72
2023/07/14 05:50:03;;;;;;;5.63;2.92;;;;;;;20.75;49.97;99389.81;5104929;28;20040;-72
2023/07/14 05:52:31;;;;;;;7.55;2.80;;;;;;;20.82;49.93;99385.53;5105834;28;20071;-72
2023/07/14 05:54:57;;;;;;;5.13;2.90;;;;;;;20.84;50.18;99386.22;5105383;28;20047;-72
2023/07/14 05:57:24;;;;;;;4.43;3.05;;;;;;;20.88;49.70;99390.31;5105430;28;20220;-72
2023/07/14 05:59:53;;;;;;;4.20;3.08;;;;;;;20.91;50.08;99383.78;5105565;28;20300;-72
2023/07/14 06:02:20;;;;;;;5.38;3.10;;;;;;;20.95;50.21;99385.19;5105917;28;20054;-72
2023/07/14 06:04:46;;;;;;;4.90;2.70;;;;;;;20.94;49.98;99373.56;5105882;28;20051;-72
2023/07/14 06:07:14;;;;;;;4.60;2.63;;;;;;;21.01;47.27;99392.66;5104697;28;20040;-72
2023/07/14 06:09:42;;;;;;;5.13;2.70;;;;;;;21.02;47.22;99394.38;5105059;28;20047;-72
2023/07/14 06:12:11;;;;;;;6.65;3.00;;;;;;;21.08;47.58;99402.72;5105489;28;20089;-72
2023/07/14 06:14:40;;;;;;;3.78;2.50;;;;;;;21.13;48.29;99400.44;5105733;28;20043;-72
2023/07/14 06:17:09;;;;;;;4.75;2.88;;;;;;;20.77;47.12;99332.13;5105458;28;20043;-71
2023/07/14 06:19:37;;;;;;;4.45;3.03;;;;;;;21.21;47.13;99402.38;5105843;28;20067;-72
2023/07/14 06:22:06;;;;;;;3.47;2.30;;;;;;;21.23;46.76;99404.91;5105398;28;20040;-72
2023/07/14 06:24:35;;;;;;;4.68;2.50;;;;;;;21.23;46.67;99402.22;5105615;28;20048;-72
2023/07/14 06:27:02;;;;;;;3.50;2.45;;;;;;;21.23;45.49;99405.75;5104477;28;20265;-72
2023/07/14 06:29:29;;;;;;;4.50;2.15;;;;;;;21.22;45.12;99403.22;5105870;28;20295;-72
2023/07/14 06:31:55;;;;;;;4.57;2.60;;;;;;;21.24;45.05;99412.84;5106048;28;20060;-72
2023/07/14 06:34:24;;;;;;;4.43;2.22;;;;;;;21.22;45.65;99397.81;5105513;28;20043;-72
2023/07/14 06:36:51;;;;;;;3.63;2.38;;;;;;;21.29;45.74;99407.84;5105484;28;20062;-72
2023/07/14 06:39:19;;;;;;;4.60;2.40;;;;;;;21.24;45.15;99383.19;5105537;28;20055;-72
2023/07/14 06:41:46;;;;;;;3.05;1.92;;;;;;;21.34;45.61;99393.91;5105244;28;20040;-72
2023/07/14 06:44:12;;;;;;;4.90;2.63;;;;;;;21.43;45.76;99379.53;5105782;28;20054;-72
2023/07/14 06:46:39;;;;;;;4.97;2.90;;;;;;;21.53;45.56;99382.16;5105447;28;20062;-72
2023/07/14 06:49:06;;;;;;;3.95;2.72;;;;;;;21.58;45.47;99378.00;5105398;28;20101;-71
2023/07/14 06:51:34;;;;;;;4.72;2.70;;;;;;;21.64;45.19;99376.53;5104969;28;20036;-72
2023/07/14 06:54:01;;;;;;;3.50;2.33;;;;;;;21.68;46.10;99367.13;5105074;28;20094;-72
2023/07/14 06:56:28;;;;;;;4.43;2.72;;;;;;;21.72;46.42;99361.25;5104899;28;20205;-72
2023/07/14 06:58:54;;;;;;;3.97;2.67;;;;;;;21.82;46.02;99363.91;5105060;28;20044;-72
2023/07/14 07:01:22;;;;;;;3.63;2.30;;;;;;;21.91;45.52;99367.50;5105458;28;20043;-72
2023/07/14 07:03:49;;;;;;;4.18;2.63;;;;;;;21.91;45.51;99367.50;5105872;28;20036;-72
2023/07/14 07:06:16;;;;;;;6.55;2.80;;;;;;;21.93;45.38;99365.50;5108925;28;20093;-72
2023/07/14 07:08:45;;;;;;;4.50;2.50;;;;;;;21.93;45.48;99360.97;5108856;28;20078;-71
2023/07/14 07:11:12;;;;;;;4.45;2.78;;;;;;;22.09;45.47;99362.94;5107558;28;20032;-71
2023/07/14 07:13:39;;;;;;;3.78;2.50;;;;;;;21.84;45.08;99283.66;5108848;28;20234;-71
2023/07/14 07:16:07;;;;;;;4.63;3.33;;;;;;;22.33;44.86;99364.94;5107522;28;20357;-72
2023/07/14 07:18:34;;;;;;;7.10;3.03;;;;;;;22.50;45.43;99369.47;5108358;28;20044;-72
2023/07/14 07:21:01;;;;;;;4.45;2.40;;;;;;;22.78;45.85;99377.41;5107442;28;20044;-72
2023/07/14 07:23:28;;;;;;;4.70;2.53;;;;;;;23.10;43.28;99372.13;5108426;28;20047;-71
2023/07/14 07:25:57;;;;;;;4.00;2.70;;;;;;;23.00;42.96;99322.78;5108542;28;20040;-72
2023/07/14 07:28:24;;;;;;;5.13;2.95;;;;;;;23.51;43.57;99370.41;5108740;28;20040;-72
2023/07/14 07:30:51;;;;;;;5.72;2.47;;;;;;;23.78;42.69;99366.53;5108132;28;20307;-71
2023/07/14 07:33:18;;;;;;;7.35;3.60;;;;;;;23.86;42.04;99357.56;5108562;28;20192;-72
2023/07/14 07:35:44;;;;;;;6.28;2.85;;;;;;;24.15;42.03;99379.59;5108261;28;20044;-72
2023/07/14 07:38:13;;;;;;;5.53;3.60;;;;;;;24.24;41.04;99361.47;5107857;28;20102;-72
2023/07/14 07:40:40;;;;;;;3.60;2.60;;;;;;;24.17;41.94;99364.00;5108277;28;20342;-71
2023/07/14 07:43:09;;;;;;;9.40;3.05;;;;;;;24.29;41.01;99361.78;5108349;28;20054;-72
2023/07/14 07:45:35;;;;;;;3.75;2.40;;;;;;;24.50;41.16;99356.66;5108161;28;20052;-72
2023/07/14 07:48:02;;;;;;;3.90;2.60;;;;;;;24.76;40.43;99367.28;5108434;28;20153;-72
2023/07/14 07:50:29;;;;;;;5.20;2.88;;;;;;;24.95;40.53;99369.56;5108500;28;20093;-72
2023/07/14 07:52:58;;;;;;;4.53;3.20;;;;;;;24.44;38.89;99253.56;5107929;28;20047;-71
2023/07/14 07:55:25;;;;;;;4.50;2.90;;;;;;;25.33;39.74;99360.81;5108276;28;20044;-72
2023/07/14 07:57:52;;;;;;;4.55;3.10;;;;;;;25.58;38.56;99362.31;5107448;28;20051;-72
2023/07/14 08:00:20;;;;;;;4.28;2.60;;;;;;;24.95;38.60;99265.72;5107614;28;20040;-72
2023/07/14 08:02:47;;;;;;;3.30;2.40;;;;;;;25.59;39.26;99345.00;5107705;28;20055;-72
2023/07/14 08:05:15;;;;;;;6.57;2.53;;;;;;;25.48;38.69;99321.88;5106488;28;20040;-72
2023/07/14 08:07:43;;;;;;;4.82;2.72;;;;;;;25.64;38.78;99310.03;5106484;28;20085;-72
2023/07/14 08:10:10;;;;;;;4.18;2.95;;;;;;;26.09;39.09;99354.47;5107668;28;20103;-72
2023/07/14 08:12:36;;;;;;;5.00;3.08;;;;;;;26.23;38.68;99359.94;5106817;28;20296;-72
2023/07/14 08:15:03;;;;;;;5.45;3.47;;;;;;;26.48;38.46;99360.53;5106543;28;20312;-72
2023/07/14 08:17:32;;;;;;;5.57;2.88;;;;;;;26.67;38.53;99361.03;5107611;28;20047;-72
2023/07/14 08:20:00;;;;;;;4.97;3.60;;;;;;;26.79;37.32;99360.38;5106929;28;20192;-72
2023/07/14 08:22:27;;;;;;;3.70;2.75;;;;;;;26.16;37.41;99271.22;5107699;28;20089;-72
2023/07/14 08:24:56;;;;;;;4.25;3.10;;;;;;;26.71;37.72;99335.16;5107380;28;20292;-72
2023/07/14 08:27:23;;;;;;;3.60;2.65;;;;;;;26.61;37.82;99349.03;5106123;28;20035;-72
2023/07/14 08:29:50;;;;;;;3.30;2.47;;;;;;;26.87;37.15;99348.53;5107010;28;20316;-72
2023/07/14 08:32:17;;;;;;;4.05;2.92;;;;;;;26.93;37.42;99342.34;5106907;28;20050;-72
2023/07/14 08:34:45;;;;;;;3.67;2.40;;;;;;;26.85;38.00;99337.00;5106745;28;20308;-72
2023/07/14 08:37:12;;;;;;;3.70;2.35;;;;;;;26.94;37.01;99340.47;5105959;28;20044;-72
2023/07/14 08:39:38;;;;;;;4.47;2.50;;;;;;;26.90;36.41;99331.00;5105864;28;20115;-72
2023/07/14 08:42:16;;;;;;;4.90;3.13;;;;;;;26.69;36.95;99338.06;5106952;28;20032;-72
2023/07/14 08:45:00;;;;;;;4.30;2.33;;;;;;;26.88;37.58;99327.63;5106698;28;20327;-72
2023/07/14 08:47:30;;;;;;;;;;;;;;;26.87;36.41;99324.06;5107118;28;20044;-72
2023/07/14 08:50:03;;;;;;;3.50;2.58;;;;;;;27.11;36.82;99337.34;5106712;28;19920;-73
2023/07/14 08:52:33;;;;;;;4.75;3.15;;;;;;;27.16;36.69;99334.88;5106238;28;20036;-73
2023/07/14 08:55:05;;;;;;;6.05;2.65;;;;;;;27.25;36.01;99330.22;5107236;28;20075;-72
2023/07/14 08:57:42;;;;;;;4.05;2.70;;;;;;;27.30;36.28;99321.47;5106381;28;20117;-72
2023/07/14 09:00:14;;;;;;;4.88;3.28;;;;;;;27.52;36.16;99320.44;5106578;28;20044;-72
2023/07/14 09:02:46;;;;;;;5.85;2.88;;;;;;;27.23;35.05;99321.41;5106736;28;20243;-72
2023/07/14 09:05:21;;;;;;;4.20;2.70;;;;;;;27.33;36.29;99318.34;5106951;28;20074;-73
2023/07/14 09:07:48;;;;;;;5.40;2.83;;;;;;;27.55;35.51;99308.31;5106591;28;20035;-73
2023/07/14 09:10:15;;;;;;;3.88;2.80;;;;;;;27.82;34.79;99293.94;5106039;28;20062;-73
2023/07/14 09:12:49;;;;;;;6.07;2.50;;;;;;;27.81;34.37;99298.53;5106306;28;20052;-72
2023/07/14 09:15:21;;;;;;;7.25;2.60;;;;;;;28.03;34.38;99298.53;5106498;28;20060;-72
2023/07/14 09:17:51;;;;;;;6.47;3.20;;;;;;;28.09;33.91;99284.13;5106290;28;20040;-72
2023/07/14 09:20:33;;;;;;;5.35;2.60;;;;;;;27.90;33.71;99274.75;5106243;28;20048;-72
2023/07/14 09:23:13;;;;;;;4.43;2.40;;;;;;;28.28;33.68;99294.31;5106278;28;20047;-72
2023/07/14 09:25:46;;;;;;;5.10;2.80;;;;;;;27.80;33.57;99196.09;5106050;28;20052;-73
2023/07/14 09:28:21;;;;;;;6.15;2.88;;;;;;;28.35;32.65;99295.19;5105593;28;20089;-73
2023/07/14 09:30:50;;;;;;;4.20;2.40;;;;;;;28.53;33.58;99294.69;5105752;28;20047;-72
2023/07/14 09:33:19;;;;;;;5.07;3.25;;;;;;;28.58;32.15;99296.81;5105298;28;20078;-73
2023/07/14 09:35:49;;;;;;;5.82;3.10;;;;;;;28.38;32.09;99245.72;5105854;28;20044;-73
2023/07/14 09:38:26;;;;;;;5.18;2.83;;;;;;;27.09;31.88;99031.22;5105783;28;20272;-72
2023/07/14 09:40:59;;;;;;;3.95;2.72;;;;;;;28.44;31.70;99290.44;5105746;28;20036;-73
2023/07/14 09:43:26;;;;;;;3.53;2.20;;;;;;;28.57;30.13;99297.88;5105815;28;20189;-73
2023/07/14 09:45:55;;;;;;;4.40;2.63;;;;;;;28.31;31.25;99295.78;5105624;28;20410;-72
2023/07/14 09:48:26;;;;;;;4.55;2.85;;;;;;;28.21;30.60;99290.69;5105235;28;20086;-73
2023/07/14 09:51:01;;;;;;;3.40;2.20;;;;;;;28.18;30.87;99288.38;5106106;28;20051;-73
2023/07/14 09:53:29;;;;;;;4.75;2.83;;;;;;;28.33;32.26;99285.53;5105652;28;20044;-73
2023/07/14 09:56:01;;;;;;;3.75;2.38;;;;;;;28.50;32.77;99284.19;5105564;28;20193;-73
2023/07/14 09:58:29;;;;;;;3.13;2.25;;;;;;;28.60;32.69;99283.81;5105853;28;20040;-73
2023/07/14 10:00:59;;;;;;;3.70;2.35;;;;;;;28.56;33.36;99272.47;5105269;28;20070;-73
2023/07/14 10:03:30;;;;;;;4.28;2.67;;;;;;;27.97;32.88;99183.06;5104688;28;20304;-73
2023/07/14 10:06:03;;;;;;;3.53;2.50;;;;;;;28.46;32.06;99279.34;5105679;28;20109;-73
2023/07/14 10:08:33;;;;;;;3.85;2.58;;;;;;;28.34;32.95;99279.88;5104470;28;20062;-73
2023/07/14 10:11:14;;;;;;;7.43;3.20;;;;;;;28.26;31.40;99284.66;5104664;28;20074;-73
2023/07/14 10:13:40;;;;;;;3.38;2.10;;;;;;;28.02;32.50;99272.34;5105884;28;20044;-73
2023/07/14 10:16:15;;;;;;;3.95;2.03;;;;;;;28.20;31.65;99278.13;5105630;28;20161;-72
2023/07/14 10:18:50;;;;;;;5.03;2.75;;;;;;;28.39;31.20;99271.09;5105695;28;20108;-73
2023/07/14 10:21:26;;;;;;;5.47;1.95;;;;;;;28.26;31.21;99274.59;5104599;28;20040;-73
2023/07/14 10:24:05;;;;;;;3.17;2.28;;;;;;;28.38;31.10;99272.16;5105217;28;20223;-73
2023/07/14 10:26:34;;;;;;;3.95;2.13;;;;;;;28.69;29.60;99268.97;5105203;28;20368;-73
2023/07/14 10:29:04;;;;;;;5.18;2.60;;;;;;;28.61;29.38;99258.25;5105000;28;20044;-73
2023/07/14 10:31:38;;;;;;;4.13;2.80;;;;;;;28.55;29.83;99256.31;5104577;28;20284;-73
2023/07/14 10:34:28;;;;;;;5.05;2.50;;;;;;;28.55;28.38;99251.72;5105224;28;20116;-73
2023/07/14 10:37:00;;;;;;;3.08;2.03;;;;;;;28.28;27.94;99253.44;5105196;28;20040;-73
2023/07/14 10:39:37;;;;;;;4.72;2.17;;;;;;;28.24;29.07;99246.72;5106918;28;20047;-73
2023/07/14 10:42:10;;;;;;;4.82;2.30;;;;;;;28.36;30.05;99246.97;5108983;28;20078;-73
2023/07/14 10:44:43;;;;;;;4.28;2.67;;;;;;;28.38;29.16;99242.16;5109184;28;20261;-73
2023/07/14 10:47:15;;;;;;;2.70;1.85;;;;;;;28.13;30.22;99223.59;5109259;28;20043;-73
2023/07/14 10:49:47;;;;;;;3.10;2.15;;;;;;;28.06;30.26;99238.22;5108881;28;20054;-73
2023/07/14 10:52:22;;;;;;;3.90;2.28;;;;;;;27.86;30.11;99235.34;5109403;28;20065;-73
2023/07/14 10:54:54;;;;;;;4.60;2.10;;;;;;;27.87;30.80;99233.47;5108348;28;20107;-73
2023/07/14 10:57:37;;;;;;;3.22;1.98;;;;;;;27.15;30.74;99120.19;5108692;28;20101;-73
2023/07/14 11:00:23;;;;;;;3.28;2.17;;;;;;;27.53;30.25;99174.31;5108783;28;20043;-72
2023/07/14 11:02:57;;;;;;;4.28;2.20;;;;;;;27.83;30.90;99218.53;5107885;28;20288;-73
2023/07/14 11:05:27;;;;;;;4.32;2.30;;;;;;;27.76;31.97;99216.59;5108623;28;20093;-73
2023/07/14 11:07:56;;;;;;;3.05;2.25;;;;;;;27.62;30.36;99212.09;5108959;28;20292;-72
2023/07/14 11:10:32;;;;;;;3.42;2.45;;;;;;;27.57;30.11;99206.38;5108939;28;20091;-73
2023/07/14 11:13:09;;;;;;;4.10;3.00;;;;;;;27.54;30.52;99214.09;5108513;28;20106;-73
2023/07/14 11:15:42;;;;;;;3.95;2.63;;;;;;;27.42;30.50;99201.03;5107639;28;20032;-74
2023/07/14 11:18:22;;;;;;;3.63;2.25;;;;;;;27.38;31.49;99183.41;5108393;28;20040;-73
2023/07/14 11:21:01;;;;;;;4.72;2.10;;;;;;;27.58;30.47;99208.06;5107355;28;20044;-74
2023/07/14 11:23:37;;;;;;;3.90;2.30;;;;;;;27.43;30.70;99189.09;5108383;28;20220;-74
2023/07/14 11:26:12;;;;;;;3.22;2.33;;;;;;;27.81;29.83;99192.34;5107828;28;20048;-74
2023/07/14 11:28:51;;;;;;;4.35;2.00;;;;;;;27.43;29.94;99166.47;5108536;28;20188;-73
2023/07/14 11:31:26;;;;;;;6.45;2.65;;;;;;;27.17;30.63;99194.28;5108780;28;20063;-73
2023/07/14 11:34:16;;;;;;;3.63;2.05;;;;;;;27.04;30.30;99195.00;5108519;28;20052;-73
2023/07/14 11:36:52;;;;;;;5.15;2.70;;;;;;;27.10;29.07;99196.94;5108651;28;20102;-73
2023/07/14 11:39:39;;;;;;;4.65;2.20;;;;;;;27.35;30.33;99193.84;5107163;28;20089;-72
2023/07/14 11:42:13;;;;;;;4.45;2.60;;;;;;;27.43;29.27;99180.94;5107954;28;20032;-73
2023/07/14 11:44:40;;;;;;;3.80;2.95;;;;;;;27.31;29.23;99152.56;5108254;28;20101;-73
2023/07/14 11:47:16;;;;;;;4.50;2.42;;;;;;;27.60;30.02;99170.59;5108165;28;20044;-73